Time;durP1;ratioP1;P1;durP2;ratioP2;P2;SDS_P1;SDS_P2;PMS_P1;PMS_P2;Temp;Humidity;BMP_temperature;BMP_pressure;BME280_temperature;BME280_humidity;BME280_pressure;Samples;Min_cycle;Max_cycle;Signal;HPM_P1;HPM_P2
2020/12/29 00:01:39;;;;;;;2.92;0.60;;;7.90;63.70;;;;;;2488700;55;20961;-70
2020/12/29 00:04:06;;;;;;;2.10;0.70;;;8.00;63.90;;;;;;2488431;55;20976;-70
2020/12/29 00:06:34;;;;;;;1.70;0.50;;;7.90;63.90;;;;;;2488846;55;21699;-70
2020/12/29 00:09:01;;;;;;;1.75;0.40;;;7.90;64.00;;;;;;2473092;55;21036;-70
2020/12/29 00:11:30;;;;;;;1.02;0.50;;;7.90;64.10;;;;;;2260424;56;21449;-71
2020/12/29 00:13:57;;;;;;;2.67;0.50;;;7.90;64.20;;;;;;2488283;55;21004;-71
2020/12/29 00:16:29;;;;;;;3.10;0.77;;;7.90;64.40;;;;;;2259706;56;21008;-71
2020/12/29 00:18:55;;;;;;;4.00;1.10;;;7.90;64.50;;;;;;2488134;55;21310;-72
2020/12/29 00:21:22;;;;;;;2.95;1.08;;;7.80;64.50;;;;;;2249426;56;21016;-72
2020/12/29 00:23:49;;;;;;;1.42;0.50;;;7.80;64.70;;;;;;2488356;55;21004;-72
2020/12/29 00:26:25;;;;;;;1.08;0.40;;;7.80;64.90;;;;;;2487696;55;21009;-73
2020/12/29 00:28:51;;;;;;;4.95;0.57;;;7.80;65.10;;;;;;2475707;55;20956;-73
2020/12/29 00:31:19;;;;;;;1.80;0.60;;;7.70;65.00;;;;;;2488509;55;21020;-73
2020/12/29 00:33:46;;;;;;;2.42;0.80;;;7.70;65.10;;;;;;2487549;55;21036;-73
2020/12/29 00:36:13;;;;;;;2.17;0.60;;;7.60;65.10;;;;;;2272034;55;21626;-73
2020/12/29 00:38:40;;;;;;;2.55;0.70;;;7.60;65.30;;;;;;2469902;55;21433;-73
2020/12/29 00:41:08;;;;;;;1.77;0.60;;;7.50;65.30;;;;;;2265779;55;21433;-74
2020/12/29 00:43:35;;;;;;;2.75;0.60;;;7.50;65.50;;;;;;2487689;55;21020;-73
2020/12/29 00:46:06;;;;;;;2.20;0.57;;;7.50;65.70;;;;;;2462133;55;20968;-73
2020/12/29 00:48:33;;;;;;;1.77;0.40;;;7.40;65.90;;;;;;2469247;55;20989;-73
2020/12/29 00:51:05;;;;;;;2.47;0.50;;;7.40;66.10;;;;;;2481876;55;20990;-74
2020/12/29 00:53:31;;;;;;;3.37;0.50;;;7.40;66.40;;;;;;2478559;55;21045;-74
2020/12/29 00:56:07;;;;;;;3.20;0.55;;;7.40;66.50;;;;;;2261961;56;21016;-74
2020/12/29 00:58:34;;;;;;;2.12;0.40;;;7.40;66.70;;;;;;2487320;55;21794;-73
2020/12/29 01:01:16;;;;;;;3.22;0.50;;;7.40;67.00;;;;;;2262326;55;21008;-74
2020/12/29 01:03:43;;;;;;;1.58;0.40;;;7.40;67.10;;;;;;2268849;55;21001;-74
2020/12/29 01:06:10;;;;;;;2.65;0.50;;;7.40;67.30;;;;;;2253485;55;21489;-74
2020/12/29 01:08:37;;;;;;;3.47;0.50;;;7.40;67.40;;;;;;2486143;55;20972;-74
2020/12/29 01:11:03;;;;;;;2.83;0.62;;;7.40;67.50;;;;;;2487310;55;21017;-74
2020/12/29 01:13:30;;;;;;;1.80;0.50;;;7.40;67.60;;;;;;2267376;55;21063;-74
2020/12/29 01:15:56;;;;;;;2.35;0.50;;;7.40;67.70;;;;;;2253752;56;21065;-74
2020/12/29 01:18:23;;;;;;;3.28;0.40;;;7.40;67.80;;;;;;2488712;55;20984;-76
2020/12/29 01:20:50;;;;;;;2.65;0.57;;;7.40;67.80;;;;;;2262648;55;21866;-74
2020/12/29 01:23:16;;;;;;;2.10;0.70;;;7.40;68.00;;;;;;2489220;55;21052;-74
2020/12/29 01:25:45;;;;;;;3.03;0.73;;;7.50;68.10;;;;;;2254191;55;21032;-75
2020/12/29 01:28:11;;;;;;;2.10;0.50;;;7.50;68.00;;;;;;2263512;55;20944;-74
2020/12/29 01:30:38;;;;;;;3.28;0.50;;;7.50;68.00;;;;;;2267141;55;21117;-74
2020/12/29 01:33:05;;;;;;;1.23;0.40;;;7.50;68.10;;;;;;2259484;56;21605;-74
2020/12/29 01:35:34;;;;;;;2.85;0.62;;;7.50;68.10;;;;;;2488504;55;20984;-72
2020/12/29 01:38:03;;;;;;;3.30;0.80;;;7.50;68.10;;;;;;2489178;55;21052;-73
2020/12/29 01:40:30;;;;;;;2.37;0.60;;;7.50;68.10;;;;;;2476519;55;21061;-74
2020/12/29 01:42:58;;;;;;;3.72;0.77;;;7.50;68.10;;;;;;2266954;55;21815;-72
2020/12/29 01:45:25;;;;;;;2.08;0.50;;;7.60;68.00;;;;;;2261795;55;21968;-73
2020/12/29 01:47:52;;;;;;;3.37;0.70;;;7.60;68.10;;;;;;2488997;55;21020;-74
2020/12/29 01:50:21;;;;;;;3.33;0.70;;;7.60;67.90;;;;;;2489550;55;21553;-73
2020/12/29 01:53:00;;;;;;;2.80;0.60;;;7.60;67.80;;;;;;2490010;55;20981;-73
2020/12/29 01:55:27;;;;;;;3.20;0.70;;;7.70;67.80;;;;;;2486037;55;20998;-73
2020/12/29 01:57:53;;;;;;;1.37;0.55;;;7.70;67.50;;;;;;2264089;55;21013;-73
2020/12/29 02:00:19;;;;;;;2.22;0.50;;;7.70;67.50;;;;;;2264752;56;20980;-74
2020/12/29 02:02:46;;;;;;;1.85;0.50;;;7.70;67.20;;;;;;2471700;55;21025;-74
2020/12/29 02:05:12;;;;;;;1.17;0.30;;;7.70;67.00;;;;;;2481677;55;21485;-73
2020/12/29 02:07:39;;;;;;;1.73;0.40;;;7.70;66.80;;;;;;2488276;55;21036;-73
2020/12/29 02:10:06;;;;;;;1.00;0.30;;;7.70;66.80;;;;;;2489507;55;21595;-72
2020/12/29 02:12:36;;;;;;;2.05;0.40;;;7.70;66.60;;;;;;2490041;55;21080;-72
2020/12/29 02:15:04;;;;;;;2.42;0.62;;;7.70;66.70;;;;;;2492232;55;21012;-72
2020/12/29 02:17:31;;;;;;;2.15;0.30;;;7.60;66.50;;;;;;2255386;56;20996;-73
2020/12/29 02:19:58;;;;;;;0.52;0.30;;;7.60;66.70;;;;;;2267991;55;21046;-74
2020/12/29 02:22:26;;;;;;;0.90;0.40;;;7.50;66.70;;;;;;2257370;56;21020;-74
2020/12/29 02:24:58;;;;;;;2.08;0.50;;;7.50;66.80;;;;;;2260076;56;21729;-73
2020/12/29 02:27:25;;;;;;;2.12;0.60;;;7.50;66.90;;;;;;2260921;56;21016;-73
2020/12/29 02:29:54;;;;;;;2.25;0.55;;;7.40;66.80;;;;;;2489129;55;21433;-74
2020/12/29 02:32:23;;;;;;;2.92;0.50;;;7.40;66.90;;;;;;2483757;55;21544;-73
2020/12/29 02:34:50;;;;;;;2.67;0.70;;;7.40;67.20;;;;;;2490153;55;20972;-74
2020/12/29 02:37:16;;;;;;;2.65;0.57;;;7.40;67.30;;;;;;2489318;55;21013;-72
2020/12/29 02:39:48;;;;;;;3.15;0.77;;;7.40;67.50;;;;;;2489905;55;20980;-74
2020/12/29 02:42:16;;;;;;;2.87;0.70;;;7.20;67.50;;;;;;2466799;55;20960;-73
2020/12/29 02:44:43;;;;;;;5.12;0.70;;;7.40;67.80;;;;;;2488318;55;21469;-73
2020/12/29 02:47:10;;;;;;;2.35;0.57;;;7.30;67.80;;;;;;2488653;55;20985;-73
2020/12/29 02:49:38;;;;;;;4.65;1.02;;;7.30;67.90;;;;;;2263330;55;21833;-73
2020/12/29 02:52:05;;;;;;;3.80;0.82;;;7.40;68.00;;;;;;2261926;55;21095;-73
2020/12/29 02:54:32;;;;;;;5.50;0.80;;;7.40;68.10;;;;;;2489412;55;20988;-74
2020/12/29 02:56:58;;;;;;;2.83;0.60;;;7.40;68.20;;;;;;2244078;56;21585;-73
2020/12/29 02:59:26;;;;;;;3.70;0.90;;;7.40;68.30;;;;;;2246654;56;21040;-74
2020/12/29 03:01:53;;;;;;;5.28;0.80;;;7.40;68.40;;;;;;2488345;55;20982;-74
2020/12/29 03:04:19;;;;;;;3.53;0.60;;;7.40;68.40;;;;;;2262272;56;21734;-74
2020/12/29 03:06:46;;;;;;;1.60;0.60;;;7.40;68.40;;;;;;2483993;55;20981;-73
2020/12/29 03:09:13;;;;;;;3.12;0.60;;;7.50;68.40;;;;;;2261258;56;21055;-73
2020/12/29 03:11:39;;;;;;;2.40;0.50;;;7.50;68.40;;;;;;2489873;55;21108;-73
2020/12/29 03:14:07;;;;;;;2.83;0.60;;;7.50;68.40;;;;;;2490651;55;21072;-73
2020/12/29 03:16:34;;;;;;;3.95;0.68;;;7.50;68.10;;;;;;2264737;56;20944;-73
2020/12/29 03:19:06;;;;;;;2.85;0.80;;;7.60;68.30;;;;;;2268986;55;21137;-74
2020/12/29 03:21:34;;;;;;;1.92;0.52;;;7.60;68.20;;;;;;2481572;55;21471;-74
2020/12/29 03:24:01;;;;;;;3.78;0.70;;;7.60;68.20;;;;;;2265215;56;20997;-73
2020/12/29 03:26:28;;;;;;;2.00;0.50;;;7.60;68.00;;;;;;2248154;56;21029;-73
2020/12/29 03:28:55;;;;;;;2.62;0.65;;;7.60;68.20;;;;;;2478444;55;21065;-74
2020/12/29 03:31:22;;;;;;;3.00;0.68;;;7.60;68.10;;;;;;2248304;55;21096;-73
2020/12/29 03:33:51;;;;;;;2.47;0.70;;;7.60;68.10;;;;;;2474869;55;20992;-72
2020/12/29 03:36:19;;;;;;;1.92;0.50;;;7.70;68.00;;;;;;2490735;55;21088;-73
2020/12/29 03:38:45;;;;;;;2.83;0.70;;;7.70;67.80;;;;;;2489784;55;21708;-73
2020/12/29 03:41:12;;;;;;;2.85;0.60;;;7.70;67.80;;;;;;2261548;56;21087;-73
2020/12/29 03:43:38;;;;;;;2.97;0.73;;;7.70;67.30;;;;;;2272401;55;21018;-73
2020/12/29 03:46:04;;;;;;;2.35;0.50;;;7.70;67.40;;;;;;2252597;56;21024;-73
2020/12/29 03:48:31;;;;;;;3.95;0.73;;;7.70;67.10;;;;;;2261793;56;21408;-73
2020/12/29 03:50:58;;;;;;;3.03;0.68;;;7.70;67.00;;;;;;2264815;55;20956;-72
2020/12/29 03:53:27;;;;;;;2.25;0.70;;;7.70;66.40;;;;;;2265263;55;20965;-73
2020/12/29 03:55:54;;;;;;;3.20;0.85;;;7.70;66.20;;;;;;2487083;55;20946;-73
2020/12/29 03:58:20;;;;;;;3.30;0.82;;;7.70;66.40;;;;;;2260388;56;21950;-73
2020/12/29 04:00:47;;;;;;;2.70;0.80;;;7.70;66.40;;;;;;2264616;55;21008;-73
2020/12/29 04:03:13;;;;;;;5.50;1.05;;;7.70;66.40;;;;;;2263932;55;21842;-73
2020/12/29 04:05:40;;;;;;;3.72;0.93;;;7.60;66.20;;;;;;2260941;56;21457;-72
2020/12/29 04:08:07;;;;;;;4.57;0.80;;;7.60;66.60;;;;;;2488355;55;21015;-73
2020/12/29 04:10:34;;;;;;;6.15;0.98;;;7.60;66.60;;;;;;2264839;56;21092;-73
2020/12/29 04:13:01;;;;;;;4.68;1.00;;;7.60;67.50;;;;;;2489887;55;21000;-73
2020/12/29 04:15:28;;;;;;;4.78;1.02;;;7.60;66.60;;;;;;2261401;56;21061;-73
2020/12/29 04:17:54;;;;;;;4.85;1.15;;;7.50;66.60;;;;;;2260671;56;20976;-72
2020/12/29 04:20:21;;;;;;;4.68;0.82;;;7.50;66.40;;;;;;2268903;55;21037;-72
2020/12/29 04:22:47;;;;;;;6.22;1.20;;;7.50;66.60;;;;;;2259732;56;21013;-73
2020/12/29 04:25:14;;;;;;;2.70;0.77;;;7.50;66.80;;;;;;2267812;55;21035;-73
2020/12/29 04:27:41;;;;;;;4.22;1.08;;;7.50;66.90;;;;;;2465038;55;20972;-74
2020/12/29 04:30:07;;;;;;;5.25;1.30;;;7.50;66.90;;;;;;2260418;56;20991;-73
2020/12/29 04:32:37;;;;;;;3.75;0.73;;;7.50;67.00;;;;;;2261612;56;21006;-73
2020/12/29 04:35:05;;;;;;;5.93;1.00;;;7.50;67.00;;;;;;2261911;56;21067;-73
2020/12/29 04:37:32;;;;;;;6.30;0.95;;;7.50;66.80;;;;;;2264998;55;22377;-73
2020/12/29 04:40:04;;;;;;;3.55;0.90;;;7.50;66.70;;;;;;2464973;55;21041;-74
2020/12/29 04:42:31;;;;;;;5.50;0.98;;;7.50;66.70;;;;;;2267939;55;20994;-74
2020/12/29 04:44:57;;;;;;;4.47;1.00;;;7.50;66.70;;;;;;2250182;56;21627;-72
2020/12/29 04:47:28;;;;;;;8.20;1.02;;;7.50;66.30;;;;;;2264927;55;21030;-72
2020/12/29 04:49:57;;;;;;;5.22;0.98;;;7.60;66.70;;;;;;2267761;55;21412;-72
2020/12/29 04:52:24;;;;;;;4.22;0.80;;;7.60;66.60;;;;;;2254812;56;20965;-73
2020/12/29 04:54:54;;;;;;;4.80;1.08;;;7.60;66.40;;;;;;2489081;55;20936;-73
2020/12/29 04:57:22;;;;;;;3.15;0.80;;;7.60;66.70;;;;;;2491063;55;21049;-73
2020/12/29 04:59:51;;;;;;;7.72;1.23;;;7.60;66.80;;;;;;2253200;55;21016;-74
2020/12/29 05:02:18;;;;;;;4.15;0.70;;;7.60;66.80;;;;;;2468486;55;21022;-72
2020/12/29 05:04:44;;;;;;;5.05;0.90;;;7.60;67.00;;;;;;2258186;56;21021;-73
2020/12/29 05:07:11;;;;;;;4.35;0.77;;;7.60;66.90;;;;;;2260616;56;20984;-73
2020/12/29 05:09:37;;;;;;;4.47;1.12;;;7.60;67.00;;;;;;2487047;55;21531;-73
2020/12/29 05:12:04;;;;;;;4.40;0.80;;;7.60;67.10;;;;;;2486876;55;21067;-72
2020/12/29 05:14:32;;;;;;;2.40;0.80;;;7.60;66.50;;;;;;2264802;55;21033;-73
2020/12/29 05:16:59;;;;;;;6.22;0.98;;;7.60;66.40;;;;;;2261725;56;21024;-73
2020/12/29 05:19:26;;;;;;;4.47;0.85;;;7.70;66.40;;;;;;2261585;56;20965;-73
2020/12/29 05:21:53;;;;;;;4.28;0.80;;;7.70;66.60;;;;;;2264827;55;21020;-73
2020/12/29 05:24:21;;;;;;;1.50;0.50;;;7.70;66.60;;;;;;2472633;55;20994;-73
2020/12/29 05:26:50;;;;;;;2.58;0.80;;;7.70;66.80;;;;;;2236961;57;21304;-73
2020/12/29 05:29:16;;;;;;;2.37;0.90;;;7.70;66.80;;;;;;2488806;55;20948;-72
2020/12/29 05:31:44;;;;;;;2.67;0.85;;;7.70;66.70;;;;;;2264818;55;20992;-72
2020/12/29 05:34:24;;;;;;;1.80;0.55;;;7.80;67.00;;;;;;2483936;55;20964;-73
2020/12/29 05:36:50;;;;;;;3.03;0.80;;;7.80;66.70;;;;;;2243097;56;21076;-72
2020/12/29 05:39:25;;;;;;;4.47;0.93;;;7.80;66.70;;;;;;2263842;55;21030;-73
2020/12/29 05:41:55;;;;;;;4.05;1.10;;;7.80;66.60;;;;;;2232959;56;21434;-73
2020/12/29 05:44:29;;;;;;;2.78;0.70;;;7.70;66.50;;;;;;2432804;56;20986;-73
2020/12/29 05:46:59;;;;;;;3.37;0.70;;;7.70;66.30;;;;;;2247505;56;21045;-73
2020/12/29 05:49:26;;;;;;;5.15;0.82;;;7.70;66.40;;;;;;2266231;55;20953;-72
2020/12/29 05:51:54;;;;;;;1.70;0.55;;;7.70;66.60;;;;;;2261241;55;20967;-73
2020/12/29 05:54:21;;;;;;;2.62;0.57;;;7.70;66.70;;;;;;2241153;56;21080;-73
2020/12/29 05:56:47;;;;;;;3.60;0.73;;;7.70;66.60;;;;;;2487690;55;21032;-73
2020/12/29 05:59:14;;;;;;;2.97;0.85;;;7.70;66.30;;;;;;2261134;56;20957;-73
2020/12/29 06:01:54;;;;;;;3.92;0.80;;;7.70;66.50;;;;;;2268930;55;20981;-73
2020/12/29 06:04:20;;;;;;;2.45;1.15;;;7.70;66.60;;;;;;2254542;55;20952;-73
2020/12/29 06:06:49;;;;;;;6.22;1.10;;;7.70;66.60;;;;;;2489885;55;21028;-72
2020/12/29 06:09:19;;;;;;;4.22;1.05;;;7.70;66.60;;;;;;2263958;55;21091;-73
2020/12/29 06:12:06;;;;;;;3.12;0.80;;;7.70;66.60;;;;;;2490154;55;21021;-72
2020/12/29 06:14:32;;;;;;;4.47;1.00;;;7.70;66.70;;;;;;2490143;55;21028;-73
2020/12/29 06:16:59;;;;;;;5.18;0.90;;;7.60;66.70;;;;;;2489333;55;20952;-73
2020/12/29 06:19:29;;;;;;;8.85;1.42;;;7.60;66.90;;;;;;2262159;55;21800;-73
2020/12/29 06:22:11;;;;;;;7.82;1.00;;;7.60;67.00;;;;;;2262472;56;21004;-73
2020/12/29 06:24:43;;;;;;;6.50;1.30;;;7.60;67.10;;;;;;2262037;56;21031;-72
2020/12/29 06:27:10;;;;;;;3.47;0.80;;;7.60;67.20;;;;;;2268304;56;21776;-73
2020/12/29 06:29:43;;;;;;;3.78;0.70;;;7.60;67.30;;;;;;2462385;55;20987;-72
2020/12/29 06:32:13;;;;;;;8.57;1.10;;;7.60;67.30;;;;;;2258134;56;20995;-73
2020/12/29 06:34:41;;;;;;;3.58;0.85;;;7.60;67.10;;;;;;2464008;55;21029;-74
2020/12/29 06:37:10;;;;;;;6.62;0.93;;;7.60;67.20;;;;;;2234503;56;21074;-73
2020/12/29 06:39:39;;;;;;;3.83;0.93;;;7.60;67.00;;;;;;2463942;55;21029;-73
2020/12/29 06:42:07;;;;;;;5.20;1.10;;;7.60;67.10;;;;;;2474635;55;20947;-73
2020/12/29 06:44:34;;;;;;;4.10;1.00;;;7.60;67.10;;;;;;2478792;55;20983;-71
2020/12/29 06:47:07;;;;;;;3.45;1.08;;;7.60;67.00;;;;;;2265172;55;20986;-72
2020/12/29 06:49:33;;;;;;;4.87;1.00;;;7.60;67.10;;;;;;2481348;55;21564;-72
2020/12/29 06:52:16;;;;;;;6.43;1.10;;;7.50;67.00;;;;;;2472433;55;21028;-72
2020/12/29 06:54:51;;;;;;;3.58;0.70;;;7.60;67.20;;;;;;2485611;55;21028;-72
2020/12/29 07:03:11;;;;;;;5.05;0.90;;;7.60;67.40;;;;;;2478305;55;21507;-72
2020/12/29 07:05:38;;;;;;;5.10;1.17;;;7.60;66.80;;;;;;2489797;55;22044;-72
2020/12/29 07:08:08;;;;;;;2.30;0.70;;;7.60;67.20;;;;;;2259122;55;21890;-72
2020/12/29 07:10:41;;;;;;;3.80;0.80;;;7.60;67.40;;;;;;2258952;55;21060;-71
2020/12/29 07:13:13;;;;;;;;;;;7.60;67.60;;;;;;2244734;56;21477;-72
2020/12/29 07:15:56;;;;;;;5.57;0.90;;;7.70;67.30;;;;;;2229861;55;20114;-72
2020/12/29 07:18:32;;;;;;;4.95;1.23;;;7.70;67.40;;;;;;2261304;55;20968;-72
2020/12/29 07:20:58;;;;;;;3.53;0.88;;;7.70;67.30;;;;;;2484865;55;20980;-72
2020/12/29 07:23:26;;;;;;;3.92;0.70;;;7.70;67.70;;;;;;2260970;55;21823;-72
2020/12/29 07:25:53;;;;;;;4.57;1.00;;;7.70;67.60;;;;;;2260779;56;21095;-72
2020/12/29 07:28:26;;;;;;;3.08;0.82;;;7.70;67.60;;;;;;2262587;55;21000;-71
2020/12/29 07:30:52;;;;;;;;;;;7.70;67.50;;;;;;2476770;55;21024;-73
2020/12/29 07:33:24;;;;;;;3.92;0.90;;;7.70;66.90;;;;;;2484959;55;20107;-73
2020/12/29 07:35:50;;;;;;;2.67;0.90;;;7.70;67.10;;;;;;2488463;55;21020;-73
2020/12/29 07:38:26;;;;;;;3.53;1.33;;;7.70;67.40;;;;;;2484285;55;20953;-73
2020/12/29 07:40:53;;;;;;;4.12;1.33;;;7.60;67.40;;;;;;2245030;55;21080;-73
2020/12/29 07:43:19;;;;;;;4.72;1.30;;;7.60;67.50;;;;;;2489750;55;21005;-73
2020/12/29 07:45:46;;;;;;;4.35;1.30;;;7.60;67.70;;;;;;2485583;55;21520;-74
2020/12/29 07:48:12;;;;;;;5.37;1.00;;;7.60;67.90;;;;;;2486244;55;20956;-73
2020/12/29 07:50:39;;;;;;;3.78;1.10;;;7.60;67.80;;;;;;2260284;55;21052;-73
2020/12/29 07:53:15;;;;;;;5.65;1.50;;;7.60;68.20;;;;;;2261630;55;21586;-74
2020/12/29 07:55:43;;;;;;;6.93;2.53;;;7.60;68.30;;;;;;2260395;55;20968;-73
2020/12/29 07:58:09;;;;;;;3.47;1.45;;;7.60;68.20;;;;;;2487148;55;21009;-73
2020/12/29 08:00:36;;;;;;;4.75;1.30;;;7.60;67.80;;;;;;2485344;55;20980;-74
2020/12/29 08:03:03;;;;;;;3.22;1.23;;;7.50;66.90;;;;;;2488208;55;20951;-75
2020/12/29 08:05:31;;;;;;;2.40;0.80;;;7.40;66.20;;;;;;2489725;55;21064;-74
2020/12/29 08:08:03;;;;;;;1.33;0.50;;;7.30;65.90;;;;;;2261398;55;21028;-74
2020/12/29 08:10:30;;;;;;;1.87;0.70;;;7.20;65.70;;;;;;2459316;55;21040;-75
2020/12/29 08:13:32;;;;;;;2.10;0.43;;;7.10;65.60;;;;;;2243443;56;20995;-74
2020/12/29 08:15:59;;;;;;;3.35;1.48;;;7.00;65.60;;;;;;2485758;55;20957;-74
2020/12/29 08:18:25;;;;;;;2.00;0.70;;;6.90;65.90;;;;;;2269380;55;21022;-74
2020/12/29 08:20:54;;;;;;;2.05;0.60;;;6.70;65.90;;;;;;2461287;55;21021;-74
2020/12/29 08:23:21;;;;;;;1.27;0.55;;;6.60;66.30;;;;;;2230706;56;21840;-74
2020/12/29 08:25:55;;;;;;;1.62;0.52;;;6.50;66.70;;;;;;2235477;55;21835;-75
2020/12/29 08:28:23;;;;;;;0.85;0.40;;;6.50;67.10;;;;;;2458122;55;20949;-74
2020/12/29 08:30:50;;;;;;;2.17;0.88;;;6.40;67.50;;;;;;2463726;55;20964;-74
2020/12/29 08:33:19;;;;;;;0.93;0.35;;;6.40;67.90;;;;;;2491248;55;21469;-74
2020/12/29 08:35:52;;;;;;;1.23;0.60;;;6.30;68.10;;;;;;2265357;55;21047;-74
2020/12/29 08:39:22;;;;;;;2.55;1.00;;;6.30;68.40;;;;;;2489473;55;20964;-75
2020/12/29 08:41:54;;;;;;;0.43;0.28;;;6.40;68.60;;;;;;2265204;55;20996;-75
2020/12/29 08:44:20;;;;;;;1.10;0.20;;;6.30;68.90;;;;;;2464362;55;21730;-75
2020/12/29 08:46:47;;;;;;;0.62;0.30;;;6.30;69.10;;;;;;2489413;55;20996;-74
2020/12/29 08:49:13;;;;;;;1.85;0.30;;;6.40;69.40;;;;;;2489892;55;21067;-74
2020/12/29 08:51:44;;;;;;;1.62;0.60;;;6.40;69.50;;;;;;2489814;55;20992;-75
2020/12/29 08:54:12;;;;;;;1.75;0.60;;;6.40;69.70;;;;;;2491023;55;20968;-74
2020/12/29 08:56:38;;;;;;;2.72;0.80;;;6.50;70.00;;;;;;2489965;55;20960;-74
2020/12/29 08:59:15;;;;;;;2.12;0.70;;;6.50;70.00;;;;;;2256925;55;21021;-75
2020/12/29 09:01:56;;;;;;;1.98;0.70;;;6.50;70.00;;;;;;2473507;55;20976;-74
2020/12/29 09:04:47;;;;;;;1.70;0.62;;;6.60;70.20;;;;;;2464732;55;20961;-74
2020/12/29 09:07:15;;;;;;;1.85;0.70;;;6.60;70.10;;;;;;2261649;56;20972;-75
2020/12/29 09:10:42;;;;;;;3.67;1.10;;;6.70;70.30;;;;;;2265143;55;21386;-75
2020/12/29 09:13:12;;;;;;;2.55;0.93;;;6.70;70.20;;;;;;2264091;55;21036;-74
2020/12/29 09:15:38;;;;;;;1.60;0.60;;;6.80;70.60;;;;;;2266807;55;21009;-75
2020/12/29 09:18:06;;;;;;;3.58;1.00;;;6.80;70.70;;;;;;2480998;55;21032;-75
2020/12/29 09:20:34;;;;;;;2.62;1.00;;;6.80;70.80;;;;;;2490078;55;22155;-75
2020/12/29 09:23:09;;;;;;;3.15;0.85;;;6.90;71.00;;;;;;2490905;55;20999;-75
2020/12/29 09:25:42;;;;;;;2.05;0.70;;;7.00;71.10;;;;;;2489139;55;21080;-75
2020/12/29 09:28:32;;;;;;;2.45;1.00;;;7.00;71.20;;;;;;2261061;56;21037;-74
2020/12/29 09:31:07;;;;;;;2.08;0.80;;;7.10;71.40;;;;;;2263651;56;20987;-74
2020/12/29 09:33:34;;;;;;;2.40;0.90;;;7.10;71.40;;;;;;2490429;55;21000;-74
2020/12/29 09:36:20;;;;;;;3.30;0.68;;;7.20;71.60;;;;;;2489924;55;21044;-74
2020/12/29 09:38:48;;;;;;;2.12;0.85;;;7.30;71.70;;;;;;2489327;55;21245;-74
2020/12/29 09:41:14;;;;;;;2.40;1.10;;;7.30;71.80;;;;;;2489685;55;20992;-74
2020/12/29 09:43:42;;;;;;;1.98;0.75;;;7.40;71.90;;;;;;2488827;55;20972;-74
2020/12/29 09:46:09;;;;;;;2.42;0.85;;;7.50;72.10;;;;;;2464959;55;21104;-75
2020/12/29 09:48:38;;;;;;;2.70;1.00;;;7.60;72.20;;;;;;2467853;55;20952;-74
2020/12/29 09:51:05;;;;;;;1.80;0.70;;;7.60;72.10;;;;;;2480658;55;21032;-74
2020/12/29 09:53:32;;;;;;;2.75;1.10;;;7.70;72.00;;;;;;2264672;55;21172;-74
2020/12/29 09:55:59;;;;;;;2.40;0.90;;;7.70;71.80;;;;;;2257137;55;21024;-74
2020/12/29 09:58:28;;;;;;;4.90;1.85;;;7.80;71.90;;;;;;2489824;55;20920;-74
2020/12/29 10:00:54;;;;;;;5.80;2.95;;;7.90;71.70;;;;;;2261488;56;20993;-74
2020/12/29 10:03:21;;;;;;;3.37;1.70;;;7.90;71.30;;;;;;2489977;55;20986;-74
2020/12/29 10:05:49;;;;;;;2.85;1.25;;;7.90;71.00;;;;;;2475798;55;21044;-73
2020/12/29 10:08:17;;;;;;;1.30;0.60;;;7.90;70.70;;;;;;2246144;55;1403383;-75
2020/12/29 10:10:46;;;;;;;1.58;0.57;;;8.00;70.80;;;;;;2464729;55;21008;-74
2020/12/29 10:13:12;;;;;;;1.87;0.77;;;8.00;70.70;;;;;;2491067;55;20945;-73
2020/12/29 10:15:39;;;;;;;1.62;0.75;;;8.00;70.80;;;;;;2263211;55;21056;-73
2020/12/29 10:18:06;;;;;;;1.67;0.70;;;8.00;71.20;;;;;;2470884;55;21041;-73
2020/12/29 10:20:33;;;;;;;4.10;1.15;;;8.00;71.30;;;;;;2470874;55;21052;-73
2020/12/29 10:23:00;;;;;;;2.30;0.82;;;8.10;71.70;;;;;;2482808;55;21000;-73
2020/12/29 10:25:27;;;;;;;3.25;1.00;;;8.10;71.90;;;;;;2488487;55;20944;-74
2020/12/29 10:27:53;;;;;;;2.80;1.20;;;8.20;72.20;;;;;;2489104;55;21028;-73
2020/12/29 10:30:20;;;;;;;2.70;1.10;;;8.30;72.40;;;;;;2264374;56;21035;-73
2020/12/29 10:32:46;;;;;;;2.78;0.90;;;8.40;72.60;;;;;;2476785;55;20996;-74
2020/12/29 10:35:14;;;;;;;11.20;3.97;;;8.50;72.70;;;;;;2490883;55;20969;-74
2020/12/29 10:37:40;;;;;;;51.05;17.08;;;8.50;72.30;;;;;;2260802;56;21036;-73
2020/12/29 10:40:11;;;;;;;42.17;16.10;;;8.60;72.10;;;;;;2242065;57;21681;-73
2020/12/29 10:42:37;;;;;;;20.90;8.63;;;8.70;71.90;;;;;;2464660;55;20978;-74
2020/12/29 10:45:04;;;;;;;9.77;4.50;;;8.70;71.80;;;;;;2249759;56;20944;-74
2020/12/29 10:47:30;;;;;;;7.55;2.90;;;8.70;71.70;;;;;;2487123;55;20940;-73
2020/12/29 10:49:57;;;;;;;6.25;2.58;;;8.80;72.00;;;;;;2485625;55;20984;-73
2020/12/29 10:52:24;;;;;;;4.65;2.22;;;8.80;72.00;;;;;;2489071;55;21001;-73
2020/12/29 10:54:51;;;;;;;3.05;1.37;;;8.90;72.00;;;;;;2272267;55;21975;-73
2020/12/29 10:57:19;;;;;;;3.33;1.20;;;8.90;71.90;;;;;;2240496;55;21068;-73
2020/12/29 10:59:45;;;;;;;3.10;1.20;;;9.00;71.70;;;;;;2261001;55;21115;-73
2020/12/29 11:02:12;;;;;;;2.12;0.80;;;9.00;71.50;;;;;;2484378;55;21363;-73
2020/12/29 11:04:38;;;;;;;2.40;0.90;;;9.10;71.60;;;;;;2263086;56;20960;-73
2020/12/29 11:07:08;;;;;;;2.80;0.90;;;9.10;72.40;;;;;;2260142;56;20971;-73
2020/12/29 11:09:34;;;;;;;2.37;0.85;;;9.10;71.70;;;;;;2487764;55;21843;-73
2020/12/29 11:12:01;;;;;;;2.17;0.93;;;9.20;71.70;;;;;;2485886;55;21128;-73
2020/12/29 11:14:28;;;;;;;1.65;0.70;;;9.20;71.60;;;;;;2486626;55;21048;-73
2020/12/29 11:16:55;;;;;;;2.05;0.77;;;9.30;71.60;;;;;;2488785;55;20980;-73
2020/12/29 11:19:27;;;;;;;1.85;0.70;;;9.30;72.10;;;;;;2260530;56;21002;-74
2020/12/29 11:21:53;;;;;;;3.72;1.10;;;9.30;71.50;;;;;;2489530;55;21614;-73
2020/12/29 11:24:20;;;;;;;3.03;1.10;;;9.40;71.70;;;;;;2253177;56;20968;-73
2020/12/29 11:26:47;;;;;;;3.50;1.30;;;9.40;71.60;;;;;;2263145;55;21618;-73
2020/12/29 11:29:13;;;;;;;2.50;1.27;;;9.50;72.30;;;;;;2260686;55;21023;-73
2020/12/29 11:31:42;;;;;;;3.90;1.20;;;9.50;72.60;;;;;;2263437;56;20999;-73
2020/12/29 11:34:10;;;;;;;3.33;1.30;;;9.70;73.20;;;;;;2261508;56;21028;-74
2020/12/29 11:36:36;;;;;;;2.67;0.95;;;9.80;73.30;;;;;;2263605;56;21096;-74
2020/12/29 11:39:03;;;;;;;3.05;1.27;;;9.90;73.30;;;;;;2489503;55;21566;-72
2020/12/29 11:41:30;;;;;;;3.08;1.10;;;9.90;73.30;;;;;;2476699;55;21513;-73
2020/12/29 11:43:57;;;;;;;2.97;1.20;;;10.10;72.30;;;;;;2265012;56;20960;-73
2020/12/29 11:46:23;;;;;;;3.55;1.10;;;10.20;72.10;;;;;;2259727;56;20981;-73
2020/12/29 11:48:51;;;;;;;2.60;1.15;;;10.30;71.80;;;;;;2268058;55;21036;-73
2020/12/29 11:51:18;;;;;;;2.92;1.00;;;10.30;71.40;;;;;;2252450;55;21980;-73
2020/12/29 11:53:44;;;;;;;3.95;1.10;;;10.40;71.10;;;;;;2263276;55;21423;-73
2020/12/29 11:56:14;;;;;;;2.72;1.05;;;10.40;70.90;;;;;;2260638;56;21052;-73
2020/12/29 11:58:41;;;;;;;2.65;1.23;;;10.50;70.80;;;;;;2489423;55;21054;-73
2020/12/29 12:01:08;;;;;;;4.15;1.30;;;10.50;70.70;;;;;;2255921;55;21096;-72
2020/12/29 12:03:35;;;;;;;3.10;1.20;;;10.50;70.50;;;;;;2473015;55;20990;-72
2020/12/29 12:06:01;;;;;;;4.15;1.17;;;10.50;69.80;;;;;;2490987;55;20937;-73
2020/12/29 12:08:28;;;;;;;3.35;1.20;;;10.50;69.20;;;;;;2264646;55;20973;-73
2020/12/29 12:10:57;;;;;;;5.75;1.25;;;10.50;69.20;;;;;;2489523;55;21709;-72
2020/12/29 12:13:24;;;;;;;2.90;0.95;;;10.50;68.80;;;;;;2264496;55;20985;-73
2020/12/29 12:15:54;;;;;;;3.60;0.88;;;10.40;68.10;;;;;;2462394;55;20996;-73
2020/12/29 12:18:34;;;;;;;3.70;0.90;;;10.40;68.20;;;;;;2488660;55;20996;-73
2020/12/29 12:21:01;;;;;;;3.60;0.80;;;10.40;67.80;;;;;;2489762;55;20948;-73
2020/12/29 12:23:28;;;;;;;4.30;1.00;;;10.30;67.90;;;;;;2261011;56;20960;-73
2020/12/29 12:25:54;;;;;;;2.95;0.68;;;10.30;67.70;;;;;;2491174;55;21037;-73
2020/12/29 12:28:22;;;;;;;2.20;0.90;;;10.30;68.50;;;;;;2261697;56;20952;-73
2020/12/29 12:30:48;;;;;;;4.22;0.90;;;10.20;67.80;;;;;;2264317;56;21108;-73
2020/12/29 12:33:19;;;;;;;1.98;0.70;;;10.20;67.90;;;;;;2257767;55;20996;-73
2020/12/29 12:35:45;;;;;;;1.77;0.80;;;10.20;67.90;;;;;;2489001;55;21190;-73
2020/12/29 12:38:12;;;;;;;1.95;0.60;;;10.20;68.10;;;;;;2487845;55;20968;-73
2020/12/29 12:40:39;;;;;;;2.67;1.00;;;10.20;68.20;;;;;;2262622;55;21064;-73
2020/12/29 12:43:05;;;;;;;2.83;0.90;;;10.20;68.20;;;;;;2261782;55;21004;-73
2020/12/29 12:45:32;;;;;;;4.80;1.90;;;10.20;68.10;;;;;;2490119;55;20997;-73
2020/12/29 12:47:59;;;;;;;8.55;3.12;;;10.20;68.10;;;;;;2259762;55;20996;-72
2020/12/29 12:50:28;;;;;;;17.85;6.45;;;10.20;68.00;;;;;;2488482;55;21010;-71
2020/12/29 12:52:57;;;;;;;54.30;17.08;;;10.20;67.70;;;;;;2234101;57;21105;-72
2020/12/29 12:55:27;;;;;;;17.75;7.68;;;10.20;68.00;;;;;;2489710;55;20964;-72
2020/12/29 12:57:54;;;;;;;11.18;3.58;;;10.20;68.10;;;;;;2264192;55;21912;-73
2020/12/29 13:00:20;;;;;;;7.40;3.05;;;10.20;67.80;;;;;;2488855;55;20945;-73
2020/12/29 13:02:47;;;;;;;4.95;2.00;;;10.20;67.50;;;;;;2490611;55;21152;-73
2020/12/29 13:05:16;;;;;;;4.10;1.48;;;10.20;67.00;;;;;;2250141;56;21000;-72
2020/12/29 13:07:45;;;;;;;2.92;1.12;;;10.20;66.80;;;;;;2266644;55;21060;-73
2020/12/29 13:10:13;;;;;;;5.03;1.52;;;10.20;66.90;;;;;;2473368;55;20992;-73